sensor_id;sensor_type;location;lat;lon;timestamp;P1;durP1;ratioP1;P2;durP2;ratioP2
45784;SDS011;31489;51.404;5.474;2023-07-16T00:02:12;5.88;;;2.15;;
45784;SDS011;31489;51.404;5.474;2023-07-16T00:04:38;2.40;;;1.63;;
45784;SDS011;31489;51.404;5.474;2023-07-16T00:07:03;4.35;;;2.17;;
45784;SDS011;31489;51.404;5.474;2023-07-16T00:09:30;4.53;;;2.15;;
45784;SDS011;31489;51.404;5.474;2023-07-16T00:11:56;4.75;;;2.33;;
45784;SDS011;31489;51.404;5.474;2023-07-16T00:14:22;5.38;;;2.15;;
45784;SDS011;31489;51.404;5.474;2023-07-16T00:16:48;3.28;;;1.85;;
45784;SDS011;31489;51.404;5.474;2023-07-16T00:19:14;3.13;;;2.00;;
45784;SDS011;31489;51.404;5.474;2023-07-16T00:21:40;4.10;;;2.10;;
45784;SDS011;31489;51.404;5.474;2023-07-16T00:24:05;4.32;;;2.30;;
45784;SDS011;31489;51.404;5.474;2023-07-16T00:26:31;6.93;;;2.30;;
45784;SDS011;31489;51.404;5.474;2023-07-16T00:28:56;5.63;;;2.42;;
45784;SDS011;31489;51.404;5.474;2023-07-16T00:31:22;4.00;;;2.33;;
45784;SDS011;31489;51.404;5.474;2023-07-16T00:33:48;5.88;;;2.72;;
45784;SDS011;31489;51.404;5.474;2023-07-16T00:36:13;3.88;;;2.25;;
45784;SDS011;31489;51.404;5.474;2023-07-16T00:38:39;4.30;;;2.55;;
45784;SDS011;31489;51.404;5.474;2023-07-16T00:41:06;3.17;;;2.10;;
45784;SDS011;31489;51.404;5.474;2023-07-16T00:43:31;4.32;;;2.10;;
45784;SDS011;31489;51.404;5.474;2023-07-16T00:45:57;3.47;;;2.10;;
45784;SDS011;31489;51.404;5.474;2023-07-16T00:48:23;4.50;;;2.17;;
45784;SDS011;31489;51.404;5.474;2023-07-16T00:50:49;2.80;;;1.77;;
45784;SDS011;31489;51.404;5.474;2023-07-16T00:53:16;3.50;;;2.00;;
45784;SDS011;31489;51.404;5.474;2023-07-16T00:55:43;5.43;;;2.17;;
45784;SDS011;31489;51.404;5.474;2023-07-16T00:58:08;4.35;;;2.13;;
45784;SDS011;31489;51.404;5.474;2023-07-16T01:00:37;3.30;;;1.98;;
45784;SDS011;31489;51.404;5.474;2023-07-16T01:03:04;4.82;;;2.17;;
45784;SDS011;31489;51.404;5.474;2023-07-16T01:05:41;2.70;;;1.83;;
45784;SDS011;31489;51.404;5.474;2023-07-16T01:08:17;4.47;;;1.95;;
45784;SDS011;31489;51.404;5.474;2023-07-16T01:10:46;5.63;;;2.13;;
45784;SDS011;31489;51.404;5.474;2023-07-16T01:13:14;5.65;;;2.20;;
45784;SDS011;31489;51.404;5.474;2023-07-16T01:15:40;4.13;;;2.20;;
45784;SDS011;31489;51.404;5.474;2023-07-16T01:18:05;6.20;;;2.70;;
45784;SDS011;31489;51.404;5.474;2023-07-16T01:20:31;4.82;;;2.08;;
45784;SDS011;31489;51.404;5.474;2023-07-16T01:32:00;7.00;;;2.90;;
45784;SDS011;31489;51.404;5.474;2023-07-16T01:34:29;4.35;;;2.42;;
45784;SDS011;31489;51.404;5.474;2023-07-16T01:36:58;5.05;;;2.58;;
45784;SDS011;31489;51.404;5.474;2023-07-16T01:39:25;3.38;;;2.17;;
45784;SDS011;31489;51.404;5.474;2023-07-16T01:41:51;3.55;;;2.15;;
45784;SDS011;31489;51.404;5.474;2023-07-16T01:44:16;9.00;;;2.65;;
45784;SDS011;31489;51.404;5.474;2023-07-16T01:46:42;4.70;;;2.38;;
45784;SDS011;31489;51.404;5.474;2023-07-16T01:49:08;5.40;;;2.38;;
45784;SDS011;31489;51.404;5.474;2023-07-16T01:51:33;4.80;;;2.53;;
45784;SDS011;31489;51.404;5.474;2023-07-16T01:53:59;5.80;;;2.22;;
45784;SDS011;31489;51.404;5.474;2023-07-16T01:56:24;3.95;;;2.03;;
45784;SDS011;31489;51.404;5.474;2023-07-16T01:58:50;5.25;;;2.40;;
45784;SDS011;31489;51.404;5.474;2023-07-16T02:01:16;5.57;;;2.50;;
45784;SDS011;31489;51.404;5.474;2023-07-16T02:03:41;5.63;;;2.60;;
45784;SDS011;31489;51.404;5.474;2023-07-16T02:06:07;7.18;;;2.72;;
45784;SDS011;31489;51.404;5.474;2023-07-16T02:08:32;5.15;;;2.85;;
45784;SDS011;31489;51.404;5.474;2023-07-16T02:10:58;4.50;;;2.65;;
45784;SDS011;31489;51.404;5.474;2023-07-16T02:13:24;5.32;;;2.78;;
45784;SDS011;31489;51.404;5.474;2023-07-16T02:15:49;4.55;;;2.38;;
45784;SDS011;31489;51.404;5.474;2023-07-16T02:18:15;6.32;;;2.30;;
45784;SDS011;31489;51.404;5.474;2023-07-16T02:20:40;3.88;;;2.83;;
45784;SDS011;31489;51.404;5.474;2023-07-16T02:23:08;5.45;;;2.22;;
45784;SDS011;31489;51.404;5.474;2023-07-16T02:25:33;6.35;;;2.70;;
45784;SDS011;31489;51.404;5.474;2023-07-16T02:27:59;6.32;;;2.50;;
45784;SDS011;31489;51.404;5.474;2023-07-16T02:30:24;4.65;;;2.10;;
45784;SDS011;31489;51.404;5.474;2023-07-16T02:32:50;4.97;;;2.33;;
45784;SDS011;31489;51.404;5.474;2023-07-16T02:35:16;4.07;;;2.08;;
45784;SDS011;31489;51.404;5.474;2023-07-16T02:37:42;7.07;;;2.35;;
45784;SDS011;31489;51.404;5.474;2023-07-16T02:40:07;3.40;;;2.13;;
45784;SDS011;31489;51.404;5.474;2023-07-16T02:42:33;3.40;;;2.10;;
45784;SDS011;31489;51.404;5.474;2023-07-16T02:44:59;6.55;;;2.63;;
45784;SDS011;31489;51.404;5.474;2023-07-16T02:47:24;4.93;;;2.15;;
45784;SDS011;31489;51.404;5.474;2023-07-16T02:49:53;5.32;;;2.47;;
45784;SDS011;31489;51.404;5.474;2023-07-16T02:52:18;4.30;;;1.98;;
45784;SDS011;31489;51.404;5.474;2023-07-16T02:54:44;5.80;;;2.00;;
45784;SDS011;31489;51.404;5.474;2023-07-16T02:57:10;7.78;;;2.47;;
45784;SDS011;31489;51.404;5.474;2023-07-16T02:59:35;7.22;;;2.83;;
45784;SDS011;31489;51.404;5.474;2023-07-16T03:02:01;6.68;;;2.17;;
45784;SDS011;31489;51.404;5.474;2023-07-16T03:04:26;3.03;;;2.33;;
45784;SDS011;31489;51.404;5.474;2023-07-16T03:06:52;7.80;;;2.60;;
45784;SDS011;31489;51.404;5.474;2023-07-16T03:09:18;6.18;;;2.38;;
45784;SDS011;31489;51.404;5.474;2023-07-16T03:11:44;4.45;;;2.10;;
45784;SDS011;31489;51.404;5.474;2023-07-16T03:14:09;6.18;;;2.58;;
45784;SDS011;31489;51.404;5.474;2023-07-16T03:16:35;5.35;;;2.38;;
45784;SDS011;31489;51.404;5.474;2023-07-16T03:19:00;6.28;;;2.67;;
45784;SDS011;31489;51.404;5.474;2023-07-16T03:21:26;7.72;;;2.58;;
45784;SDS011;31489;51.404;5.474;2023-07-16T03:23:52;11.48;;;3.08;;
45784;SDS011;31489;51.404;5.474;2023-07-16T03:26:17;6.50;;;2.72;;
45784;SDS011;31489;51.404;5.474;2023-07-16T03:28:43;9.02;;;2.92;;
45784;SDS011;31489;51.404;5.474;2023-07-16T03:31:08;6.68;;;2.50;;
45784;SDS011;31489;51.404;5.474;2023-07-16T03:33:34;13.13;;;3.00;;
45784;SDS011;31489;51.404;5.474;2023-07-16T03:36:00;5.72;;;2.70;;
45784;SDS011;31489;51.404;5.474;2023-07-16T03:38:25;10.13;;;2.90;;
45784;SDS011;31489;51.404;5.474;2023-07-16T03:40:53;9.05;;;2.72;;
45784;SDS011;31489;51.404;5.474;2023-07-16T03:43:19;6.95;;;2.75;;
45784;SDS011;31489;51.404;5.474;2023-07-16T03:45:45;6.47;;;2.92;;
45784;SDS011;31489;51.404;5.474;2023-07-16T03:48:10;7.70;;;2.72;;
45784;SDS011;31489;51.404;5.474;2023-07-16T03:50:36;5.35;;;2.88;;
45784;SDS011;31489;51.404;5.474;2023-07-16T03:53:02;8.02;;;2.80;;
45784;SDS011;31489;51.404;5.474;2023-07-16T03:55:28;4.65;;;2.65;;
45784;SDS011;31489;51.404;5.474;2023-07-16T03:57:54;8.07;;;2.83;;
45784;SDS011;31489;51.404;5.474;2023-07-16T04:00:19;8.88;;;3.33;;
45784;SDS011;31489;51.404;5.474;2023-07-16T04:02:45;11.05;;;3.28;;
45784;SDS011;31489;51.404;5.474;2023-07-16T04:05:11;8.40;;;3.28;;
45784;SDS011;31489;51.404;5.474;2023-07-16T04:07:36;9.05;;;3.33;;
45784;SDS011;31489;51.404;5.474;2023-07-16T04:10:02;8.52;;;2.88;;
45784;SDS011;31489;51.404;5.474;2023-07-16T04:12:28;6.45;;;3.10;;
45784;SDS011;31489;51.404;5.474;2023-07-16T04:14:57;9.30;;;3.25;;
45784;SDS011;31489;51.404;5.474;2023-07-16T04:17:24;10.50;;;3.03;;
45784;SDS011;31489;51.404;5.474;2023-07-16T04:19:50;9.25;;;3.10;;
45784;SDS011;31489;51.404;5.474;2023-07-16T04:22:15;7.50;;;3.10;;
45784;SDS011;31489;51.404;5.474;2023-07-16T04:24:41;7.40;;;3.15;;
45784;SDS011;31489;51.404;5.474;2023-07-16T04:27:07;6.45;;;3.20;;
45784;SDS011;31489;51.404;5.474;2023-07-16T04:29:32;9.15;;;3.80;;
45784;SDS011;31489;51.404;5.474;2023-07-16T04:31:58;7.32;;;3.42;;
45784;SDS011;31489;51.404;5.474;2023-07-16T04:34:24;9.80;;;3.45;;
45784;SDS011;31489;51.404;5.474;2023-07-16T04:36:49;6.03;;;3.03;;
45784;SDS011;31489;51.404;5.474;2023-07-16T04:39:15;9.82;;;3.78;;
45784;SDS011;31489;51.404;5.474;2023-07-16T04:41:43;8.73;;;3.28;;
45784;SDS011;31489;51.404;5.474;2023-07-16T04:44:09;10.52;;;3.92;;
45784;SDS011;31489;51.404;5.474;2023-07-16T04:46:34;8.43;;;3.80;;
45784;SDS011;31489;51.404;5.474;2023-07-16T04:49:01;7.65;;;4.00;;
45784;SDS011;31489;51.404;5.474;2023-07-16T04:51:26;8.65;;;4.05;;
45784;SDS011;31489;51.404;5.474;2023-07-16T04:53:52;9.02;;;3.60;;
45784;SDS011;31489;51.404;5.474;2023-07-16T04:56:18;9.07;;;3.60;;
45784;SDS011;31489;51.404;5.474;2023-07-16T04:58:44;10.90;;;3.67;;
45784;SDS011;31489;51.404;5.474;2023-07-16T05:01:09;11.00;;;4.03;;
45784;SDS011;31489;51.404;5.474;2023-07-16T05:03:35;12.40;;;4.28;;
45784;SDS011;31489;51.404;5.474;2023-07-16T05:06:01;8.10;;;3.40;;
45784;SDS011;31489;51.404;5.474;2023-07-16T05:08:27;8.23;;;3.75;;
45784;SDS011;31489;51.404;5.474;2023-07-16T05:10:56;10.90;;;4.05;;
45784;SDS011;31489;51.404;5.474;2023-07-16T05:13:21;10.98;;;3.90;;
45784;SDS011;31489;51.404;5.474;2023-07-16T05:15:47;9.05;;;3.92;;
45784;SDS011;31489;51.404;5.474;2023-07-16T05:18:13;7.80;;;3.92;;
45784;SDS011;31489;51.404;5.474;2023-07-16T05:20:38;12.32;;;4.32;;
45784;SDS011;31489;51.404;5.474;2023-07-16T05:23:04;11.18;;;4.38;;
45784;SDS011;31489;51.404;5.474;2023-07-16T05:25:30;8.18;;;3.80;;
45784;SDS011;31489;51.404;5.474;2023-07-16T05:27:55;9.40;;;4.22;;
45784;SDS011;31489;51.404;5.474;2023-07-16T05:30:21;11.43;;;4.28;;
45784;SDS011;31489;51.404;5.474;2023-07-16T05:32:47;8.40;;;4.30;;
45784;SDS011;31489;51.404;5.474;2023-07-16T05:35:13;8.30;;;4.10;;
45784;SDS011;31489;51.404;5.474;2023-07-16T05:37:38;9.50;;;4.40;;
45784;SDS011;31489;51.404;5.474;2023-07-16T05:40:04;11.20;;;4.47;;
45784;SDS011;31489;51.404;5.474;2023-07-16T05:42:33;13.75;;;4.45;;
45784;SDS011;31489;51.404;5.474;2023-07-16T05:44:59;11.45;;;4.53;;
45784;SDS011;31489;51.404;5.474;2023-07-16T05:47:24;9.30;;;4.28;;
45784;SDS011;31489;51.404;5.474;2023-07-16T05:49:50;9.15;;;4.07;;
45784;SDS011;31489;51.404;5.474;2023-07-16T05:52:16;10.57;;;4.50;;
45784;SDS011;31489;51.404;5.474;2023-07-16T05:54:43;10.00;;;4.65;;
45784;SDS011;31489;51.404;5.474;2023-07-16T05:57:10;8.98;;;4.70;;
45784;SDS011;31489;51.404;5.474;2023-07-16T05:59:35;6.85;;;3.88;;
45784;SDS011;31489;51.404;5.474;2023-07-16T06:02:02;9.30;;;4.03;;
45784;SDS011;31489;51.404;5.474;2023-07-16T06:04:28;9.77;;;4.22;;
45784;SDS011;31489;51.404;5.474;2023-07-16T06:06:54;7.95;;;4.55;;
45784;SDS011;31489;51.404;5.474;2023-07-16T06:09:21;7.43;;;3.78;;
45784;SDS011;31489;51.404;5.474;2023-07-16T06:11:47;9.02;;;4.65;;
45784;SDS011;31489;51.404;5.474;2023-07-16T06:14:12;9.45;;;3.92;;
45784;SDS011;31489;51.404;5.474;2023-07-16T06:16:38;9.38;;;4.63;;
45784;SDS011;31489;51.404;5.474;2023-07-16T06:19:04;10.15;;;5.03;;
45784;SDS011;31489;51.404;5.474;2023-07-16T06:21:29;9.82;;;4.68;;
45784;SDS011;31489;51.404;5.474;2023-07-16T06:23:55;8.80;;;3.97;;
45784;SDS011;31489;51.404;5.474;2023-07-16T06:26:21;10.27;;;4.57;;
45784;SDS011;31489;51.404;5.474;2023-07-16T06:28:46;10.70;;;4.78;;
45784;SDS011;31489;51.404;5.474;2023-07-16T06:31:15;9.52;;;4.68;;
45784;SDS011;31489;51.404;5.474;2023-07-16T06:33:43;11.20;;;5.07;;
45784;SDS011;31489;51.404;5.474;2023-07-16T06:36:11;15.20;;;5.50;;
45784;SDS011;31489;51.404;5.474;2023-07-16T06:38:37;9.25;;;4.53;;
45784;SDS011;31489;51.404;5.474;2023-07-16T06:41:03;9.45;;;4.68;;
45784;SDS011;31489;51.404;5.474;2023-07-16T06:43:28;18.95;;;5.70;;
45784;SDS011;31489;51.404;5.474;2023-07-16T06:45:54;17.10;;;5.93;;
45784;SDS011;31489;51.404;5.474;2023-07-16T06:48:20;15.35;;;5.50;;
45784;SDS011;31489;51.404;5.474;2023-07-16T06:50:45;11.02;;;5.55;;
45784;SDS011;31489;51.404;5.474;2023-07-16T06:53:11;12.27;;;5.35;;
45784;SDS011;31489;51.404;5.474;2023-07-16T06:55:37;11.80;;;5.20;;
45784;SDS011;31489;51.404;5.474;2023-07-16T06:58:02;13.15;;;5.60;;
45784;SDS011;31489;51.404;5.474;2023-07-16T07:00:28;12.57;;;5.30;;
45784;SDS011;31489;51.404;5.474;2023-07-16T07:02:54;14.27;;;5.72;;
45784;SDS011;31489;51.404;5.474;2023-07-16T07:05:20;10.95;;;5.10;;
45784;SDS011;31489;51.404;5.474;2023-07-16T07:07:45;11.40;;;5.40;;
45784;SDS011;31489;51.404;5.474;2023-07-16T07:10:12;11.98;;;5.63;;
45784;SDS011;31489;51.404;5.474;2023-07-16T07:12:38;12.70;;;5.47;;
45784;SDS011;31489;51.404;5.474;2023-07-16T07:15:05;10.35;;;5.40;;
45784;SDS011;31489;51.404;5.474;2023-07-16T07:17:34;10.02;;;4.93;;
45784;SDS011;31489;51.404;5.474;2023-07-16T07:20:00;13.73;;;6.10;;
45784;SDS011;31489;51.404;5.474;2023-07-16T07:22:26;12.52;;;4.78;;
45784;SDS011;31489;51.404;5.474;2023-07-16T07:24:52;12.25;;;5.32;;
45784;SDS011;31489;51.404;5.474;2023-07-16T07:27:17;9.52;;;5.32;;
45784;SDS011;31489;51.404;5.474;2023-07-16T07:29:43;12.07;;;5.30;;
45784;SDS011;31489;51.404;5.474;2023-07-16T07:32:09;9.73;;;4.93;;
45784;SDS011;31489;51.404;5.474;2023-07-16T07:34:34;14.75;;;5.28;;
45784;SDS011;31489;51.404;5.474;2023-07-16T07:37:00;8.40;;;5.20;;
45784;SDS011;31489;51.404;5.474;2023-07-16T07:39:26;12.27;;;5.28;;
45784;SDS011;31489;51.404;5.474;2023-07-16T07:41:51;15.50;;;5.38;;
45784;SDS011;31489;51.404;5.474;2023-07-16T07:44:17;8.05;;;4.82;;
45784;SDS011;31489;51.404;5.474;2023-07-16T07:46:42;11.30;;;5.35;;
45784;SDS011;31489;51.404;5.474;2023-07-16T07:49:08;12.70;;;5.50;;
45784;SDS011;31489;51.404;5.474;2023-07-16T07:51:34;16.58;;;5.80;;
45784;SDS011;31489;51.404;5.474;2023-07-16T07:53:59;10.60;;;5.00;;
45784;SDS011;31489;51.404;5.474;2023-07-16T07:56:25;7.70;;;4.95;;
45784;SDS011;31489;51.404;5.474;2023-07-16T07:58:51;11.43;;;5.00;;
45784;SDS011;31489;51.404;5.474;2023-07-16T08:01:16;11.25;;;5.13;;
45784;SDS011;31489;51.404;5.474;2023-07-16T08:03:42;13.35;;;5.22;;
45784;SDS011;31489;51.404;5.474;2023-07-16T08:06:07;8.95;;;5.00;;
45784;SDS011;31489;51.404;5.474;2023-07-16T08:08:33;8.68;;;5.28;;
45784;SDS011;31489;51.404;5.474;2023-07-16T08:10:59;10.43;;;4.97;;
45784;SDS011;31489;51.404;5.474;2023-07-16T08:13:24;9.60;;;4.60;;
45784;SDS011;31489;51.404;5.474;2023-07-16T08:15:50;13.98;;;5.15;;
45784;SDS011;31489;51.404;5.474;2023-07-16T08:18:15;12.18;;;5.15;;
45784;SDS011;31489;51.404;5.474;2023-07-16T08:20:41;9.27;;;4.68;;
45784;SDS011;31489;51.404;5.474;2023-07-16T08:23:07;11.93;;;4.78;;
45784;SDS011;31489;51.404;5.474;2023-07-16T08:25:32;9.70;;;5.18;;
45784;SDS011;31489;51.404;5.474;2023-07-16T08:27:58;10.38;;;4.88;;
45784;SDS011;31489;51.404;5.474;2023-07-16T08:30:24;11.05;;;4.45;;
45784;SDS011;31489;51.404;5.474;2023-07-16T08:32:49;10.95;;;4.47;;
45784;SDS011;31489;51.404;5.474;2023-07-16T08:35:15;8.60;;;4.55;;
45784;SDS011;31489;51.404;5.474;2023-07-16T08:37:42;10.23;;;4.60;;
45784;SDS011;31489;51.404;5.474;2023-07-16T08:40:11;12.52;;;5.05;;
45784;SDS011;31489;51.404;5.474;2023-07-16T08:42:38;9.30;;;4.47;;
45784;SDS011;31489;51.404;5.474;2023-07-16T08:45:09;6.97;;;4.07;;
45784;SDS011;31489;51.404;5.474;2023-07-16T08:47:35;10.10;;;4.75;;
45784;SDS011;31489;51.404;5.474;2023-07-16T08:50:01;9.15;;;4.57;;
45784;SDS011;31489;51.404;5.474;2023-07-16T08:52:27;8.20;;;4.47;;
45784;SDS011;31489;51.404;5.474;2023-07-16T08:54:54;9.75;;;4.20;;
45784;SDS011;31489;51.404;5.474;2023-07-16T08:57:20;12.35;;;5.00;;
45784;SDS011;31489;51.404;5.474;2023-07-16T08:59:50;9.73;;;4.85;;
45784;SDS011;31489;51.404;5.474;2023-07-16T09:02:19;10.05;;;4.60;;
45784;SDS011;31489;51.404;5.474;2023-07-16T09:04:46;9.60;;;4.32;;
45784;SDS011;31489;51.404;5.474;2023-07-16T09:07:13;8.05;;;3.72;;
45784;SDS011;31489;51.404;5.474;2023-07-16T09:09:39;10.25;;;4.63;;
45784;SDS011;31489;51.404;5.474;2023-07-16T09:12:05;7.15;;;4.38;;
45784;SDS011;31489;51.404;5.474;2023-07-16T09:14:31;8.18;;;4.35;;
45784;SDS011;31489;51.404;5.474;2023-07-16T09:16:56;10.80;;;4.20;;
45784;SDS011;31489;51.404;5.474;2023-07-16T09:19:22;9.25;;;3.78;;
45784;SDS011;31489;51.404;5.474;2023-07-16T09:21:50;9.82;;;4.57;;
45784;SDS011;31489;51.404;5.474;2023-07-16T09:24:17;8.35;;;4.15;;
45784;SDS011;31489;51.404;5.474;2023-07-16T09:26:51;7.63;;;3.97;;
45784;SDS011;31489;51.404;5.474;2023-07-16T09:29:18;9.13;;;3.95;;
45784;SDS011;31489;51.404;5.474;2023-07-16T09:31:57;7.97;;;3.97;;
45784;SDS011;31489;51.404;5.474;2023-07-16T09:34:30;8.40;;;4.18;;
45784;SDS011;31489;51.404;5.474;2023-07-16T09:36:56;6.85;;;4.03;;
45784;SDS011;31489;51.404;5.474;2023-07-16T09:39:22;7.40;;;4.03;;
45784;SDS011;31489;51.404;5.474;2023-07-16T09:41:50;6.00;;;3.70;;
45784;SDS011;31489;51.404;5.474;2023-07-16T09:44:16;7.68;;;3.92;;
45784;SDS011;31489;51.404;5.474;2023-07-16T09:46:42;5.50;;;3.15;;
45784;SDS011;31489;51.404;5.474;2023-07-16T09:49:09;8.50;;;3.58;;
45784;SDS011;31489;51.404;5.474;2023-07-16T09:51:38;6.65;;;3.47;;
45784;SDS011;31489;51.404;5.474;2023-07-16T09:54:04;9.02;;;3.30;;
45784;SDS011;31489;51.404;5.474;2023-07-16T09:56:35;7.85;;;3.10;;
45784;SDS011;31489;51.404;5.474;2023-07-16T09:59:05;6.35;;;3.08;;
45784;SDS011;31489;51.404;5.474;2023-07-16T10:01:40;8.85;;;3.22;;
45784;SDS011;31489;51.404;5.474;2023-07-16T10:04:11;4.78;;;3.20;;
45784;SDS011;31489;51.404;5.474;2023-07-16T10:06:47;4.68;;;3.25;;
45784;SDS011;31489;51.404;5.474;2023-07-16T10:09:50;5.28;;;3.08;;
45784;SDS011;31489;51.404;5.474;2023-07-16T10:12:18;9.43;;;3.40;;
45784;SDS011;31489;51.404;5.474;2023-07-16T10:14:46;6.32;;;3.28;;
45784;SDS011;31489;51.404;5.474;2023-07-16T10:17:22;8.25;;;3.80;;
45784;SDS011;31489;51.404;5.474;2023-07-16T10:19:49;5.38;;;3.10;;
45784;SDS011;31489;51.404;5.474;2023-07-16T10:22:15;6.07;;;3.38;;
45784;SDS011;31489;51.404;5.474;2023-07-16T10:24:42;6.85;;;3.53;;
45784;SDS011;31489;51.404;5.474;2023-07-16T10:27:08;7.78;;;3.75;;
45784;SDS011;31489;51.404;5.474;2023-07-16T10:29:34;6.22;;;3.05;;
45784;SDS011;31489;51.404;5.474;2023-07-16T10:32:01;4.95;;;3.10;;
45784;SDS011;31489;51.404;5.474;2023-07-16T10:34:28;8.10;;;3.67;;
45784;SDS011;31489;51.404;5.474;2023-07-16T10:36:53;6.47;;;3.97;;
45784;SDS011;31489;51.404;5.474;2023-07-16T10:39:19;6.65;;;3.40;;
45784;SDS011;31489;51.404;5.474;2023-07-16T10:41:44;6.80;;;3.25;;
45784;SDS011;31489;51.404;5.474;2023-07-16T10:44:13;5.28;;;3.22;;
45784;SDS011;31489;51.404;5.474;2023-07-16T10:46:43;5.72;;;3.80;;
45784;SDS011;31489;51.404;5.474;2023-07-16T10:49:09;7.20;;;3.70;;
45784;SDS011;31489;51.404;5.474;2023-07-16T10:51:34;5.90;;;3.60;;
45784;SDS011;31489;51.404;5.474;2023-07-16T10:54:00;7.22;;;3.42;;
45784;SDS011;31489;51.404;5.474;2023-07-16T10:56:30;6.22;;;3.30;;
45784;SDS011;31489;51.404;5.474;2023-07-16T10:59:00;6.53;;;3.55;;
45784;SDS011;31489;51.404;5.474;2023-07-16T11:01:28;7.47;;;3.42;;
45784;SDS011;31489;51.404;5.474;2023-07-16T11:04:01;8.20;;;3.30;;
45784;SDS011;31489;51.404;5.474;2023-07-16T11:06:31;7.15;;;3.50;;
45784;SDS011;31489;51.404;5.474;2023-07-16T11:09:11;7.28;;;3.70;;
45784;SDS011;31489;51.404;5.474;2023-07-16T11:11:37;7.15;;;3.45;;
45784;SDS011;31489;51.404;5.474;2023-07-16T11:14:04;7.13;;;3.72;;
45784;SDS011;31489;51.404;5.474;2023-07-16T11:16:37;7.90;;;3.67;;
45784;SDS011;31489;51.404;5.474;2023-07-16T11:19:05;5.63;;;3.60;;
45784;SDS011;31489;51.404;5.474;2023-07-16T11:21:35;5.93;;;3.33;;
45784;SDS011;31489;51.404;5.474;2023-07-16T11:24:14;6.00;;;3.50;;
45784;SDS011;31489;51.404;5.474;2023-07-16T11:26:49;9.18;;;3.28;;
45784;SDS011;31489;51.404;5.474;2023-07-16T11:29:17;5.93;;;3.55;;
45784;SDS011;31489;51.404;5.474;2023-07-16T11:31:43;6.47;;;3.20;;
45784;SDS011;31489;51.404;5.474;2023-07-16T11:34:12;9.40;;;3.35;;
45784;SDS011;31489;51.404;5.474;2023-07-16T11:36:38;7.63;;;3.70;;
45784;SDS011;31489;51.404;5.474;2023-07-16T11:39:04;6.88;;;3.58;;
45784;SDS011;31489;51.404;5.474;2023-07-16T11:41:30;7.18;;;3.50;;
45784;SDS011;31489;51.404;5.474;2023-07-16T11:44:02;6.85;;;3.90;;
45784;SDS011;31489;51.404;5.474;2023-07-16T11:46:31;6.05;;;3.83;;
45784;SDS011;31489;51.404;5.474;2023-07-16T11:48:58;7.50;;;3.65;;
45784;SDS011;31489;51.404;5.474;2023-07-16T11:51:24;6.35;;;3.70;;
45784;SDS011;31489;51.404;5.474;2023-07-16T11:53:50;9.10;;;3.58;;
45784;SDS011;31489;51.404;5.474;2023-07-16T11:56:15;6.95;;;3.45;;
45784;SDS011;31489;51.404;5.474;2023-07-16T11:58:41;8.18;;;3.65;;
45784;SDS011;31489;51.404;5.474;2023-07-16T12:01:06;6.78;;;3.45;;
45784;SDS011;31489;51.404;5.474;2023-07-16T12:03:32;8.23;;;4.07;;
45784;SDS011;31489;51.404;5.474;2023-07-16T12:05:58;7.88;;;3.67;;
45784;SDS011;31489;51.404;5.474;2023-07-16T12:08:23;5.32;;;3.35;;
45784;SDS011;31489;51.404;5.474;2023-07-16T12:10:49;6.05;;;3.65;;
45784;SDS011;31489;51.404;5.474;2023-07-16T12:13:14;9.00;;;3.75;;
45784;SDS011;31489;51.404;5.474;2023-07-16T12:15:40;6.75;;;3.70;;
45784;SDS011;31489;51.404;5.474;2023-07-16T12:18:06;4.72;;;2.97;;
45784;SDS011;31489;51.404;5.474;2023-07-16T12:20:33;7.25;;;3.42;;
45784;SDS011;31489;51.404;5.474;2023-07-16T12:23:01;8.80;;;3.80;;
45784;SDS011;31489;51.404;5.474;2023-07-16T12:25:28;6.13;;;3.63;;
45784;SDS011;31489;51.404;5.474;2023-07-16T12:27:53;5.78;;;3.40;;
45784;SDS011;31489;51.404;5.474;2023-07-16T12:30:19;4.95;;;3.30;;
45784;SDS011;31489;51.404;5.474;2023-07-16T12:32:45;5.53;;;3.22;;
45784;SDS011;31489;51.404;5.474;2023-07-16T12:35:10;6.93;;;3.88;;
45784;SDS011;31489;51.404;5.474;2023-07-16T12:37:36;7.68;;;3.78;;
45784;SDS011;31489;51.404;5.474;2023-07-16T12:40:01;6.05;;;3.05;;
45784;SDS011;31489;51.404;5.474;2023-07-16T12:42:28;5.72;;;3.63;;
45784;SDS011;31489;51.404;5.474;2023-07-16T12:44:53;5.63;;;3.30;;
45784;SDS011;31489;51.404;5.474;2023-07-16T12:47:19;6.90;;;3.75;;
45784;SDS011;31489;51.404;5.474;2023-07-16T12:49:45;6.20;;;3.80;;
45784;SDS011;31489;51.404;5.474;2023-07-16T12:52:10;5.70;;;3.40;;
45784;SDS011;31489;51.404;5.474;2023-07-16T12:54:36;8.40;;;4.40;;
45784;SDS011;31489;51.404;5.474;2023-07-16T12:57:02;7.25;;;3.65;;
45784;SDS011;31489;51.404;5.474;2023-07-16T12:59:28;9.82;;;3.88;;
45784;SDS011;31489;51.404;5.474;2023-07-16T13:01:53;8.70;;;3.50;;
45784;SDS011;31489;51.404;5.474;2023-07-16T13:04:19;8.70;;;4.20;;
45784;SDS011;31489;51.404;5.474;2023-07-16T13:06:44;7.63;;;3.63;;
45784;SDS011;31489;51.404;5.474;2023-07-16T13:09:12;7.80;;;3.65;;
45784;SDS011;31489;51.404;5.474;2023-07-16T13:11:39;8.32;;;4.03;;
45784;SDS011;31489;51.404;5.474;2023-07-16T13:14:05;9.63;;;3.75;;
45784;SDS011;31489;51.404;5.474;2023-07-16T13:16:31;7.07;;;3.85;;
45784;SDS011;31489;51.404;5.474;2023-07-16T13:18:57;6.43;;;3.58;;
45784;SDS011;31489;51.404;5.474;2023-07-16T13:21:22;6.75;;;3.35;;
45784;SDS011;31489;51.404;5.474;2023-07-16T13:23:48;9.82;;;3.50;;
45784;SDS011;31489;51.404;5.474;2023-07-16T13:26:13;6.85;;;3.50;;
45784;SDS011;31489;51.404;5.474;2023-07-16T13:28:39;7.55;;;3.45;;
45784;SDS011;31489;51.404;5.474;2023-07-16T13:31:05;5.80;;;3.45;;
45784;SDS011;31489;51.404;5.474;2023-07-16T13:33:31;9.80;;;3.95;;
45784;SDS011;31489;51.404;5.474;2023-07-16T13:35:57;7.40;;;2.95;;
45784;SDS011;31489;51.404;5.474;2023-07-16T13:38:25;4.78;;;3.00;;
45784;SDS011;31489;51.404;5.474;2023-07-16T13:40:50;8.25;;;3.03;;
45784;SDS011;31489;51.404;5.474;2023-07-16T13:43:16;8.50;;;3.40;;
45784;SDS011;31489;51.404;5.474;2023-07-16T13:45:42;5.07;;;3.00;;
45784;SDS011;31489;51.404;5.474;2023-07-16T13:48:07;5.47;;;3.45;;
45784;SDS011;31489;51.404;5.474;2023-07-16T13:50:33;5.32;;;2.92;;
45784;SDS011;31489;51.404;5.474;2023-07-16T13:52:59;6.53;;;3.20;;
45784;SDS011;31489;51.404;5.474;2023-07-16T13:55:26;6.75;;;3.15;;
45784;SDS011;31489;51.404;5.474;2023-07-16T13:57:53;6.28;;;3.38;;
45784;SDS011;31489;51.404;5.474;2023-07-16T14:00:20;7.70;;;3.20;;
45784;SDS011;31489;51.404;5.474;2023-07-16T14:02:46;5.68;;;2.90;;
45784;SDS011;31489;51.404;5.474;2023-07-16T14:05:12;4.90;;;3.13;;
45784;SDS011;31489;51.404;5.474;2023-07-16T14:07:38;4.85;;;3.00;;
45784;SDS011;31489;51.404;5.474;2023-07-16T14:10:03;6.10;;;3.50;;
45784;SDS011;31489;51.404;5.474;2023-07-16T14:12:29;6.03;;;2.78;;
45784;SDS011;31489;51.404;5.474;2023-07-16T14:14:55;3.45;;;2.70;;
45784;SDS011;31489;51.404;5.474;2023-07-16T14:17:21;5.50;;;3.00;;
45784;SDS011;31489;51.404;5.474;2023-07-16T14:19:47;4.18;;;2.60;;
45784;SDS011;31489;51.404;5.474;2023-07-16T14:22:13;4.38;;;2.70;;
45784;SDS011;31489;51.404;5.474;2023-07-16T14:24:40;4.70;;;2.70;;
45784;SDS011;31489;51.404;5.474;2023-07-16T14:27:07;6.03;;;2.72;;
45784;SDS011;31489;51.404;5.474;2023-07-16T14:29:33;5.32;;;2.65;;
45784;SDS011;31489;51.404;5.474;2023-07-16T14:32:00;4.20;;;2.78;;
45784;SDS011;31489;51.404;5.474;2023-07-16T14:34:25;7.28;;;3.10;;
45784;SDS011;31489;51.404;5.474;2023-07-16T14:36:52;7.88;;;2.80;;
45784;SDS011;31489;51.404;5.474;2023-07-16T14:39:18;4.97;;;3.05;;
45784;SDS011;31489;51.404;5.474;2023-07-16T14:41:43;5.07;;;2.90;;
45784;SDS011;31489;51.404;5.474;2023-07-16T14:44:09;5.28;;;2.70;;
45784;SDS011;31489;51.404;5.474;2023-07-16T14:46:35;7.22;;;3.42;;
45784;SDS011;31489;51.404;5.474;2023-07-16T14:49:02;6.47;;;3.50;;
45784;SDS011;31489;51.404;5.474;2023-07-16T14:51:28;7.93;;;3.53;;